createdAt,value
2017-06-01T00:00:27.357Z,60.42
2017-06-01T00:01:08.130Z,60.42
2017-06-01T00:01:48.938Z,60.23
2017-06-01T00:02:29.694Z,60.42
2017-06-01T00:03:10.490Z,60.71
2017-06-01T00:03:51.231Z,60.52
2017-06-01T00:04:32.010Z,60.32
2017-06-01T00:05:12.948Z,60.32
2017-06-01T00:05:53.673Z,60.52
2017-06-01T00:06:34.433Z,60.52
2017-06-01T00:07:15.160Z,60.61
2017-06-01T00:07:55.994Z,60.52
2017-06-01T00:08:36.738Z,60.13
2017-06-01T00:09:17.550Z,60.42
2017-06-01T00:09:58.298Z,60.81
2017-06-01T00:10:39.058Z,60.42
2017-06-01T00:11:19.846Z,60.71
2017-06-01T00:12:00.616Z,60.61
2017-06-01T00:12:56.037Z,60.42
2017-06-01T00:13:36.850Z,60.23
2017-06-01T00:14:17.580Z,60.42
2017-06-01T00:14:58.387Z,60.32
2017-06-01T00:15:39.087Z,60.61
2017-06-01T00:16:19.927Z,60.42
2017-06-01T00:17:00.753Z,60.71
2017-06-01T00:17:41.549Z,60.32
2017-06-01T00:18:22.383Z,60.61
2017-06-01T00:19:03.084Z,60.71
2017-06-01T00:19:43.848Z,60.61
2017-06-01T00:20:24.671Z,60.23
2017-06-01T00:21:05.504Z,60.61
2017-06-01T00:21:46.255Z,60.52
2017-06-01T00:22:26.997Z,60.32
2017-06-01T00:23:07.786Z,60.03
2017-06-01T00:23:48.541Z,59.64
2017-06-01T00:24:29.397Z,60.32
2017-06-01T00:25:10.113Z,60.23
2017-06-01T00:25:50.877Z,60.32
2017-06-01T00:26:31.625Z,60.13
2017-06-01T00:27:12.398Z,60.13
2017-06-01T00:27:53.173Z,60.23
2017-06-01T00:28:34.057Z,60.13
2017-06-01T00:29:14.780Z,59.94
2017-06-01T00:29:55.593Z,60.23
2017-06-01T00:30:36.409Z,60.13
2017-06-01T00:31:17.285Z,60.13
2017-06-01T00:31:57.986Z,59.64
2017-06-01T00:32:38.801Z,59.74
2017-06-01T00:33:19.608Z,59.94
2017-06-01T00:34:00.351Z,60.03
2017-06-01T00:34:41.203Z,60.13
2017-06-01T00:35:21.939Z,60.03
2017-06-01T00:36:02.706Z,60.13
2017-06-01T00:36:43.494Z,59.94
2017-06-01T00:37:24.215Z,60.13
2017-06-01T00:38:05.033Z,59.74
2017-06-01T00:38:45.752Z,60.13
2017-06-01T00:39:26.548Z,59.94
2017-06-01T00:40:07.297Z,60.03
2017-06-01T00:40:48.058Z,60.23
2017-06-01T00:41:28.839Z,60.13
2017-06-01T00:42:09.648Z,59.74
2017-06-01T00:42:51.050Z,60.23
2017-06-01T00:43:32.011Z,60.23
2017-06-01T00:44:12.720Z,59.94
2017-06-01T00:44:53.455Z,60.13
2017-06-01T00:45:34.265Z,59.94
2017-06-01T00:46:15.061Z,60.03
2017-06-01T00:46:55.941Z,60.13
2017-06-01T00:47:36.741Z,60.13
2017-06-01T00:48:17.526Z,60.13
2017-06-01T00:48:58.308Z,60.13
2017-06-01T00:49:39.067Z,60.13
2017-06-01T00:50:19.923Z,59.84
2017-06-01T00:51:00.786Z,59.84
2017-06-01T00:51:41.497Z,60.13
2017-06-01T00:52:22.254Z,60.23
2017-06-01T00:53:03.015Z,60.23
2017-06-01T00:53:43.771Z,60.23
2017-06-01T00:54:24.545Z,60.91
2017-06-01T00:55:05.328Z,60.32
2017-06-01T00:55:46.302Z,60.13
2017-06-01T00:56:26.957Z,60.61
2017-06-01T00:57:07.686Z,59.94
2017-06-01T00:57:48.476Z,60.61
2017-06-01T00:58:29.241Z,60.61
2017-06-01T00:59:09.963Z,59.94
2017-06-01T00:59:50.685Z,60.32
2017-06-01T01:00:31.484Z,60.61
2017-06-01T01:01:12.249Z,60.52
2017-06-01T01:01:53.040Z,60.23
2017-06-01T01:02:33.885Z,60.03
2017-06-01T01:03:14.664Z,60.49
2017-06-01T01:03:55.412Z,61.07
2017-06-01T01:04:36.195Z,61.36
2017-06-01T01:05:17.004Z,61.07
2017-06-01T01:05:57.766Z,61.26
2017-06-01T01:06:38.530Z,61.46
2017-06-01T01:07:19.317Z,61.91
2017-06-01T01:08:00.078Z,61.91
2017-06-01T01:08:40.790Z,62.49
2017-06-01T01:09:21.531Z,62.2
2017-06-01T01:10:02.371Z,62.69
2017-06-01T01:10:43.130Z,62.59
2017-06-01T01:11:23.919Z,62.4
2017-06-01T01:12:04.676Z,62.01
2017-06-01T01:12:45.456Z,61.94
2017-06-01T01:13:33.180Z,62.4
2017-06-01T01:14:13.856Z,61.91
2017-06-01T01:14:54.638Z,61.65
2017-06-01T01:15:35.391Z,61.07
2017-06-01T01:16:16.202Z,61.43
2017-06-01T01:16:56.944Z,61.33
2017-06-01T01:17:37.653Z,61.33
2017-06-01T01:18:18.442Z,61.82
2017-06-01T01:18:59.209Z,62.01
2017-06-01T01:19:39.979Z,62.2
2017-06-01T01:20:20.816Z,62.2
2017-06-01T01:21:01.650Z,61.91
2017-06-01T01:21:42.463Z,62.1
2017-06-01T01:22:23.348Z,62.2
2017-06-01T01:23:04.065Z,62.3
2017-06-01T01:23:44.853Z,61.72
2017-06-01T01:24:25.638Z,61.24
2017-06-01T01:25:06.396Z,61.72
2017-06-01T01:25:47.145Z,61.33
2017-06-01T01:26:27.948Z,62.2
2017-06-01T01:27:08.801Z,62.1
2017-06-01T01:27:49.558Z,61.91
2017-06-01T01:28:30.361Z,62.3
2017-06-01T01:29:11.127Z,62.4
2017-06-01T01:29:51.896Z,62.2
2017-06-01T01:30:32.629Z,62.2
2017-06-01T01:31:13.399Z,61.82
2017-06-01T01:31:54.206Z,61.91
2017-06-01T01:32:34.923Z,61.82
2017-06-01T01:33:15.753Z,62.2
2017-06-01T01:33:56.502Z,61.82
2017-06-01T01:34:37.281Z,61.62
2017-06-01T01:35:18.147Z,62.01
2017-06-01T01:35:58.989Z,62.1
2017-06-01T01:36:39.717Z,62.3
2017-06-01T01:37:20.483Z,61.82
2017-06-01T01:38:01.190Z,62.4
2017-06-01T01:38:42.017Z,62.01
2017-06-01T01:39:22.874Z,62.01
2017-06-01T01:40:03.665Z,62.1
2017-06-01T01:40:44.408Z,61.91
2017-06-01T01:41:25.231Z,62.3
2017-06-01T01:42:06.011Z,62.01
2017-06-01T01:42:46.865Z,62.01
2017-06-01T01:44:42.029Z,62.59
2017-06-01T01:45:22.853Z,62.79
2017-06-01T01:46:03.677Z,63.24
2017-06-01T01:46:44.364Z,63.24
2017-06-01T01:47:25.121Z,62.88
2017-06-01T01:48:05.871Z,63.04
2017-06-01T01:48:46.626Z,63.04
2017-06-01T01:49:27.415Z,63.04
2017-06-01T01:50:08.160Z,63.34
2017-06-01T01:50:48.982Z,63.37
2017-06-01T01:51:29.759Z,62.95
2017-06-01T01:52:10.497Z,63.53
2017-06-01T01:52:51.274Z,63.72
2017-06-01T01:53:32.041Z,63.34
2017-06-01T01:54:12.783Z,63.04
2017-06-01T01:54:53.530Z,63.07
2017-06-01T01:55:34.272Z,62.75
2017-06-01T01:56:15.047Z,62.69
2017-06-01T01:56:55.816Z,62.59
2017-06-01T01:57:36.575Z,62.59
2017-06-01T01:58:17.364Z,62.88
2017-06-01T01:58:58.172Z,62.79
2017-06-01T01:59:38.888Z,62.69
2017-06-01T02:00:19.799Z,62.88
2017-06-01T02:01:00.650Z,62.88
2017-06-01T02:01:41.411Z,63.04
2017-06-01T02:02:22.150Z,63.14
2017-06-01T02:03:02.893Z,63.34
2017-06-01T02:03:43.641Z,62.95
2017-06-01T02:04:24.436Z,63.07
2017-06-01T02:05:05.161Z,63.14
2017-06-01T02:05:46.019Z,63.07
2017-06-01T02:06:26.783Z,62.85
2017-06-01T02:07:07.501Z,62.49
2017-06-01T02:07:48.311Z,62.79
2017-06-01T02:08:29.015Z,62.88
2017-06-01T02:09:09.763Z,62.69
2017-06-01T02:09:50.499Z,62.4
2017-06-01T02:10:31.281Z,62.49
2017-06-01T02:11:12.059Z,62.2
2017-06-01T02:11:52.858Z,62.01
2017-06-01T02:12:33.631Z,61.82
2017-06-01T02:13:14.412Z,62.2
2017-06-01T02:13:55.178Z,61.82
2017-06-01T02:14:36.022Z,61.72
2017-06-01T02:15:16.808Z,61.62
2017-06-01T02:15:57.588Z,61.65
2017-06-01T02:16:38.338Z,61.46
2017-06-01T02:17:19.095Z,61.46
2017-06-01T02:17:59.808Z,61.36
2017-06-01T02:18:40.615Z,61.17
2017-06-01T02:19:21.420Z,61.33
2017-06-01T02:20:02.255Z,61.26
2017-06-01T02:20:43.055Z,61.46
2017-06-01T02:21:23.851Z,61.17
2017-06-01T02:22:04.605Z,61.36
2017-06-01T02:22:45.386Z,61.14
2017-06-01T02:23:26.178Z,61.43
2017-06-01T02:24:06.964Z,61.65
2017-06-01T02:24:47.731Z,61.75
2017-06-01T02:25:28.464Z,61.62
2017-06-01T02:26:09.280Z,62.2
2017-06-01T02:26:50.030Z,61.91
2017-06-01T02:27:30.898Z,62.1
2017-06-01T02:28:11.757Z,62.1
2017-06-01T02:28:52.468Z,62.1
2017-06-01T02:29:33.246Z,62.2
2017-06-01T02:30:14.104Z,61.91
2017-06-01T02:30:54.889Z,62.1
2017-06-01T02:31:35.711Z,61.85
2017-06-01T02:32:16.437Z,61.72
2017-06-01T02:32:57.237Z,62.01
2017-06-01T02:33:37.946Z,62.01
2017-06-01T02:34:18.758Z,62.49
2017-06-01T02:34:59.475Z,62.49
2017-06-01T02:35:40.211Z,62.3
2017-06-01T02:36:21.046Z,62.1
2017-06-01T02:37:01.785Z,62.2
2017-06-01T02:37:42.552Z,62.49
2017-06-01T02:38:23.369Z,62.4
2017-06-01T02:39:04.149Z,61.82
2017-06-01T02:39:44.948Z,61.72
2017-06-01T02:40:25.777Z,61.82
2017-06-01T02:41:06.541Z,61.91
2017-06-01T02:41:47.322Z,62.33
2017-06-01T02:42:27.995Z,62.01
2017-06-01T02:43:08.749Z,62.01
2017-06-01T02:43:49.514Z,62.01
2017-06-01T02:44:30.373Z,62.01
2017-06-01T02:45:11.053Z,62.04
2017-06-01T02:45:51.889Z,62.01
2017-06-01T02:46:32.575Z,61.85
2017-06-01T02:47:13.469Z,61.33
2017-06-01T02:47:54.136Z,61.85
2017-06-01T02:48:34.884Z,61.24
2017-06-01T02:49:15.616Z,61.85
2017-06-01T02:49:56.402Z,61.17
2017-06-01T02:50:37.171Z,61.36
2017-06-01T02:51:17.990Z,61.36
2017-06-01T02:51:58.705Z,61.26
2017-06-01T02:52:39.447Z,61.36
2017-06-01T02:53:20.237Z,61.46
2017-06-01T02:54:01.123Z,61.26
2017-06-01T02:54:41.927Z,61.43
2017-06-01T02:55:22.749Z,61.55
2017-06-01T02:56:03.526Z,61.46
2017-06-01T02:56:44.282Z,61.17
2017-06-01T02:57:25.089Z,61.07
2017-06-01T02:58:05.846Z,61.17
2017-06-01T02:58:46.672Z,61.46
2017-06-01T02:59:27.406Z,60.97
2017-06-01T03:00:08.181Z,61.26
2017-06-01T03:00:48.947Z,61.07
2017-06-01T03:01:29.630Z,61.36
2017-06-01T03:02:10.479Z,61.46
2017-06-01T03:02:51.243Z,61.26
2017-06-01T03:03:31.984Z,61.75
2017-06-01T03:04:12.659Z,62.33
2017-06-01T03:04:53.467Z,62.23
2017-06-01T03:05:34.234Z,62.1
2017-06-01T03:06:14.981Z,62.13
2017-06-01T03:06:55.773Z,61.82
2017-06-01T03:07:36.596Z,62.2
2017-06-01T03:08:17.397Z,61.91
2017-06-01T03:08:58.177Z,62.2
2017-06-01T03:09:38.997Z,61.82
2017-06-01T03:10:19.773Z,62.23
2017-06-01T03:11:00.471Z,62.33
2017-06-01T03:11:41.259Z,61.85
2017-06-01T03:12:22.135Z,62.23
2017-06-01T03:13:02.920Z,62.23
2017-06-01T03:13:43.753Z,62.04
2017-06-01T03:14:24.528Z,61.94
2017-06-01T03:15:05.362Z,62.23
2017-06-01T03:15:46.089Z,61.75
2017-06-01T03:16:26.809Z,61.36
2017-06-01T03:17:07.516Z,61.65
2017-06-01T03:17:48.257Z,61.36
2017-06-01T03:18:29.100Z,61.46
2017-06-01T03:19:09.800Z,60.97
2017-06-01T03:19:50.533Z,61.75
2017-06-01T03:20:31.339Z,61.75
2017-06-01T03:21:12.188Z,61.65
2017-06-01T03:21:53.034Z,61.26
2017-06-01T03:22:33.856Z,61.75
2017-06-01T03:23:14.645Z,61.17
2017-06-01T03:23:55.386Z,61.46
2017-06-01T03:24:36.152Z,61.65
2017-06-01T03:25:16.920Z,61.94
2017-06-01T03:25:57.694Z,61.94
2017-06-01T03:26:38.411Z,61.65
2017-06-01T03:27:19.137Z,61.94
2017-06-01T03:27:59.920Z,61.85
2017-06-01T03:28:40.660Z,61.75
2017-06-01T03:29:21.417Z,61.75
2017-06-01T03:30:02.150Z,61.94
2017-06-01T03:30:42.902Z,62.04
2017-06-01T03:31:23.688Z,61.55
2017-06-01T03:32:04.418Z,61.46
2017-06-01T03:32:45.269Z,61.46
2017-06-01T03:33:26.106Z,61.26
2017-06-01T03:34:06.828Z,61.46
2017-06-01T03:34:47.594Z,61.26
2017-06-01T03:35:28.351Z,61.75
2017-06-01T03:36:09.091Z,61.46
2017-06-01T03:36:49.874Z,61.26
2017-06-01T03:37:30.727Z,61.36
2017-06-01T03:38:11.401Z,61.75
2017-06-01T03:38:52.183Z,62.33
2017-06-01T03:39:32.944Z,61.85
2017-06-01T03:40:13.788Z,61.75
2017-06-01T03:40:54.637Z,61.26
2017-06-01T03:41:35.310Z,61.07
2017-06-01T03:42:16.037Z,61.17
2017-06-01T03:42:56.834Z,61.46
2017-06-01T03:43:37.677Z,61.26
2017-06-01T03:44:18.476Z,61.55
2017-06-01T03:44:59.251Z,61.36
2017-06-01T03:45:40.017Z,61.26
2017-06-01T03:46:20.802Z,61.17
2017-06-01T03:47:01.564Z,61.36
2017-06-01T03:47:42.327Z,61.17
2017-06-01T03:48:23.114Z,61.26
2017-06-01T03:49:03.841Z,61.36
2017-06-01T03:49:44.619Z,61.36
2017-06-01T03:50:25.410Z,60.88
2017-06-01T03:51:06.225Z,61.17
2017-06-01T03:51:47.038Z,61.26
2017-06-01T03:52:27.777Z,60.58
2017-06-01T03:53:08.532Z,61.07
2017-06-01T03:53:49.285Z,61.26
2017-06-01T03:54:29.979Z,61.26
2017-06-01T03:55:10.780Z,61.46
2017-06-01T03:55:51.505Z,61.17
2017-06-01T03:56:32.225Z,61.17
2017-06-01T03:57:12.928Z,61.07
2017-06-01T03:57:53.708Z,61.46
2017-06-01T03:58:34.496Z,61.36
2017-06-01T03:59:15.298Z,61.36
2017-06-01T03:59:56.106Z,61.26
2017-06-01T04:00:36.889Z,61.36
2017-06-01T04:01:17.615Z,61.26
2017-06-01T04:01:58.436Z,60.97
2017-06-01T04:02:39.195Z,61.07
2017-06-01T04:03:19.945Z,61.07
2017-06-01T04:04:00.678Z,61.46
2017-06-01T04:04:41.516Z,60.68
2017-06-01T04:05:22.352Z,61.36
2017-06-01T04:06:03.153Z,61.17
2017-06-01T04:06:43.859Z,61.26
2017-06-01T04:07:24.659Z,61.46
2017-06-01T04:08:05.367Z,61.17
2017-06-01T04:08:46.188Z,61.17
2017-06-01T04:09:26.951Z,61.26
2017-06-01T04:10:07.727Z,61.46
2017-06-01T04:10:48.492Z,60.68
2017-06-01T04:11:29.230Z,60.88
2017-06-01T04:12:09.981Z,61.07
2017-06-01T04:12:50.829Z,60.88
2017-06-01T04:13:31.651Z,60.97
2017-06-01T04:14:12.455Z,60.97
2017-06-01T04:14:53.273Z,61.17
2017-06-01T04:15:34.019Z,60.78
2017-06-01T04:16:14.826Z,61.26
2017-06-01T04:16:55.587Z,61.07
2017-06-01T04:17:36.402Z,61.07
2017-06-01T04:18:17.128Z,61.26
2017-06-01T04:18:57.893Z,61.07
2017-06-01T04:19:38.742Z,60.39
2017-06-01T04:20:19.503Z,60.78
2017-06-01T04:21:00.276Z,61.26
2017-06-01T04:21:40.990Z,60.58
2017-06-01T04:22:21.724Z,60.68
2017-06-01T04:23:02.474Z,60.68
2017-06-01T04:23:43.188Z,60.2
2017-06-01T04:24:23.909Z,60.49
2017-06-01T04:25:04.683Z,60.78
2017-06-01T04:25:45.489Z,60.49
2017-06-01T04:26:26.322Z,61.26
2017-06-01T04:27:07.079Z,60.1
2017-06-01T04:27:47.799Z,60.3
2017-06-01T04:28:28.594Z,60.49
2017-06-01T04:29:09.410Z,60.3
2017-06-01T04:29:50.256Z,60.49
2017-06-01T04:30:31.112Z,60.49
2017-06-01T04:31:11.829Z,60.39
2017-06-01T04:31:52.636Z,60.39
2017-06-01T04:32:33.392Z,60.58
2017-06-01T04:33:14.171Z,60.1
2017-06-01T04:33:54.915Z,60.1
2017-06-01T04:34:35.793Z,60.49
2017-06-01T04:35:16.514Z,60.39
2017-06-01T04:35:57.297Z,60.39
2017-06-01T04:36:38.069Z,60.3
2017-06-01T04:37:18.814Z,60.1
2017-06-01T04:37:59.536Z,60.58
2017-06-01T04:38:40.303Z,60.58
2017-06-01T04:39:21.102Z,60.39
2017-06-01T04:40:01.932Z,60.68
2017-06-01T04:40:42.695Z,60.2
2017-06-01T04:41:23.486Z,60.39
2017-06-01T04:42:04.343Z,60.58
2017-06-01T04:42:45.136Z,60.39
2017-06-01T04:43:25.925Z,60.39
2017-06-01T04:44:06.684Z,60.2
2017-06-01T04:44:47.538Z,60.2
2017-06-01T04:45:28.299Z,60.39
2017-06-01T04:46:09.098Z,60.3
2017-06-01T04:46:49.844Z,60.3
2017-06-01T04:47:30.689Z,60.58
2017-06-01T04:48:11.450Z,60.39
2017-06-01T04:48:52.158Z,60.39
2017-06-01T04:49:32.975Z,60.39
2017-06-01T04:50:13.735Z,60.58
2017-06-01T04:50:54.571Z,60.68
2017-06-01T04:51:35.302Z,60.58
2017-06-01T04:52:16.018Z,60.3
2017-06-01T04:52:56.812Z,60.68
2017-06-01T04:53:37.544Z,60.39
2017-06-01T04:54:18.264Z,60.3
2017-06-01T04:54:59.066Z,60.3
2017-06-01T04:55:39.811Z,60.39
2017-06-01T04:56:20.542Z,60.3
2017-06-01T04:57:01.292Z,60.3
2017-06-01T04:57:41.994Z,60.3
2017-06-01T04:58:22.861Z,60.3
2017-06-01T04:59:03.652Z,60.39
2017-06-01T04:59:44.396Z,60.1
2017-06-01T05:00:25.198Z,60.3
2017-06-01T05:01:06.024Z,60.1
2017-06-01T05:01:46.785Z,60.39
2017-06-01T05:02:27.612Z,60.58
2017-06-01T05:03:08.440Z,60.58
2017-06-01T05:03:49.215Z,60.68
2017-06-01T05:04:29.893Z,60.58
2017-06-01T05:05:10.721Z,60.3
2017-06-01T05:05:51.502Z,60.78
2017-06-01T05:06:32.230Z,60.39
2017-06-01T05:07:13.039Z,60.68
2017-06-01T05:07:53.798Z,60.49
2017-06-01T05:08:34.592Z,60.39
2017-06-01T05:09:15.394Z,60.49
2017-06-01T05:09:56.218Z,60.58
2017-06-01T05:10:37.023Z,60.68
2017-06-01T05:11:17.792Z,60.58
2017-06-01T05:11:58.494Z,60.58
2017-06-01T05:12:39.226Z,60.49
2017-06-01T05:13:19.987Z,60
2017-06-01T05:14:00.791Z,60.3
2017-06-01T05:14:41.521Z,60.1
2017-06-01T05:15:22.245Z,60.1
2017-06-01T05:16:03.123Z,60.32
2017-06-01T05:16:43.850Z,60.1
2017-06-01T05:17:24.722Z,59.94
2017-06-01T05:18:05.477Z,60.13
2017-06-01T05:18:46.305Z,60.03
2017-06-01T05:19:27.079Z,60.13
2017-06-01T05:20:07.847Z,60.32
2017-06-01T05:20:48.611Z,59.94
2017-06-01T05:21:29.391Z,60.23
2017-06-01T05:22:10.210Z,59.74
2017-06-01T05:22:51.003Z,59.74
2017-06-01T05:23:31.762Z,59.94
2017-06-01T05:24:12.525Z,59.84
2017-06-01T05:24:53.327Z,59.48
2017-06-01T05:25:34.117Z,58.54
2017-06-01T05:26:14.907Z,57.96
2017-06-01T05:26:55.703Z,56.43
2017-06-01T05:27:36.432Z,56.46
2017-06-01T05:28:17.263Z,55.58
2017-06-01T05:28:58.048Z,55.13
2017-06-01T05:29:38.846Z,55.32
2017-06-01T05:30:19.652Z,54.83
2017-06-01T05:31:00.362Z,54.83
2017-06-01T05:31:41.165Z,54.35
2017-06-01T05:32:21.907Z,54.64
2017-06-01T05:33:02.675Z,55.19
2017-06-01T05:33:43.464Z,55.78
2017-06-01T05:34:24.300Z,56.24
2017-06-01T05:35:05.141Z,57.18
2017-06-01T05:35:45.922Z,57.57
2017-06-01T05:36:26.672Z,57.96
2017-06-01T05:37:07.450Z,58.15
2017-06-01T05:37:48.253Z,58.25
2017-06-01T05:38:29.000Z,58.44
2017-06-01T05:39:09.758Z,58.34
2017-06-01T05:39:50.522Z,59
2017-06-01T05:40:31.251Z,59.28
2017-06-01T05:41:12.030Z,59.12
2017-06-01T05:41:52.796Z,58.25
2017-06-01T05:42:33.509Z,57.79
2017-06-01T05:43:14.248Z,56.72
2017-06-01T05:43:54.975Z,57.31
2017-06-01T05:44:35.824Z,58.18
2017-06-01T05:45:16.604Z,58.34
2017-06-01T05:45:57.316Z,58.34
2017-06-01T05:46:38.087Z,59.03
2017-06-01T05:47:18.825Z,59.12
2017-06-01T05:47:59.588Z,59.48
2017-06-01T05:48:40.346Z,59.38
2017-06-01T05:49:21.491Z,59.58
2017-06-01T05:50:02.284Z,59.48
2017-06-01T05:50:43.068Z,59.67
2017-06-01T05:51:23.906Z,59.48
2017-06-01T05:52:04.647Z,59.48
2017-06-01T05:52:45.428Z,59.87
2017-06-01T05:53:26.245Z,59.87
2017-06-01T05:54:06.976Z,59.58
2017-06-01T05:54:47.767Z,59.48
2017-06-01T05:55:28.544Z,59.67
2017-06-01T05:56:09.328Z,59.38
2017-06-01T05:56:50.131Z,59.38
2017-06-01T05:57:30.904Z,59.48
2017-06-01T05:58:11.679Z,59.87
2017-06-01T05:58:52.500Z,59.48
2017-06-01T05:59:33.224Z,59.58
2017-06-01T06:00:14.031Z,59.28
2017-06-01T06:00:54.759Z,59.38
2017-06-01T06:01:35.556Z,59.38
2017-06-01T06:02:16.302Z,59.77
2017-06-01T06:02:57.123Z,59.61
2017-06-01T06:03:38.220Z,59.19
2017-06-01T06:04:19.085Z,59.41
2017-06-01T06:05:00.640Z,59.41
2017-06-01T06:05:41.341Z,59.8
2017-06-01T06:06:22.109Z,59.31
2017-06-01T06:07:02.914Z,59.12
2017-06-01T06:07:43.937Z,58.73
2017-06-01T06:08:24.670Z,58.73
2017-06-01T06:09:05.451Z,58.47
2017-06-01T06:09:46.232Z,58.28
2017-06-01T06:10:26.957Z,58.37
2017-06-01T06:11:07.710Z,57.98
2017-06-01T06:11:48.477Z,57.98
2017-06-01T06:12:29.319Z,58.08
2017-06-01T06:13:10.114Z,57.98
2017-06-01T06:13:50.948Z,57.89
2017-06-01T06:14:31.701Z,57.89
2017-06-01T06:15:12.464Z,57.62
2017-06-01T06:15:53.252Z,57.53
2017-06-01T06:16:33.983Z,57.72
2017-06-01T06:17:14.750Z,57.53
2017-06-01T06:17:55.481Z,57.62
2017-06-01T06:18:36.361Z,57.14
2017-06-01T06:19:17.120Z,57.23
2017-06-01T06:19:57.928Z,56.85
2017-06-01T06:20:38.717Z,57.04
2017-06-01T06:21:19.513Z,56.97
2017-06-01T06:22:00.271Z,56.46
2017-06-01T06:22:41.093Z,56.49
2017-06-01T06:23:21.791Z,56.29
2017-06-01T06:24:02.562Z,56.68
2017-06-01T06:24:43.346Z,56.29
2017-06-01T06:25:24.080Z,56
2017-06-01T06:26:04.916Z,56.1
2017-06-01T06:26:45.738Z,56
2017-06-01T06:27:26.559Z,55.8
2017-06-01T06:28:07.300Z,56.1
2017-06-01T06:28:48.098Z,55.8
2017-06-01T06:29:29.328Z,55.41
2017-06-01T06:30:10.171Z,55.41
2017-06-01T06:30:50.968Z,55.35
2017-06-01T06:31:31.688Z,55.44
2017-06-01T06:32:12.423Z,55.35
2017-06-01T06:32:53.193Z,55.54
2017-06-01T06:33:34.109Z,55.35
2017-06-01T06:34:15.482Z,55.44
2017-06-01T06:34:56.835Z,55.44
2017-06-01T06:35:37.723Z,54.76
2017-06-01T06:36:18.723Z,54.76
2017-06-01T06:36:59.575Z,54.79
2017-06-01T06:37:40.377Z,54.47
2017-06-01T06:38:21.392Z,54.6
2017-06-01T06:39:02.222Z,54.6
2017-06-01T06:39:42.992Z,54.3
